sensor_id;sensor_type;location;lat;lon;timestamp;temperature;humidity
7214;DHT22;3648;50.614;13.830;2022-11-20T00:01:21;-4.60;1.00
7214;DHT22;3648;50.614;13.830;2022-11-20T00:03:48;-4.60;1.00
7214;DHT22;3648;50.614;13.830;2022-11-20T00:06:17;-4.60;1.00
7214;DHT22;3648;50.614;13.830;2022-11-20T00:08:45;-4.70;1.00
7214;DHT22;3648;50.614;13.830;2022-11-20T00:11:14;-5.00;1.00
7214;DHT22;3648;50.614;13.830;2022-11-20T00:13:41;-4.80;1.00
7214;DHT22;3648;50.614;13.830;2022-11-20T00:16:11;-4.90;1.00
7214;DHT22;3648;50.614;13.830;2022-11-20T00:18:38;-4.80;1.00
7214;DHT22;3648;50.614;13.830;2022-11-20T00:21:07;-4.70;1.00
7214;DHT22;3648;50.614;13.830;2022-11-20T00:23:36;-4.70;1.00
7214;DHT22;3648;50.614;13.830;2022-11-20T00:26:03;-4.70;1.00
7214;DHT22;3648;50.614;13.830;2022-11-20T00:28:30;-4.80;1.00
7214;DHT22;3648;50.614;13.830;2022-11-20T00:31:02;-4.80;1.00
7214;DHT22;3648;50.614;13.830;2022-11-20T00:33:31;-4.90;1.00
7214;DHT22;3648;50.614;13.830;2022-11-20T00:36:01;-4.90;1.00
7214;DHT22;3648;50.614;13.830;2022-11-20T00:38:29;-4.90;1.00
7214;DHT22;3648;50.614;13.830;2022-11-20T00:40:57;-5.10;1.00
7214;DHT22;3648;50.614;13.830;2022-11-20T00:43:24;-5.30;1.00
7214;DHT22;3648;50.614;13.830;2022-11-20T00:45:55;-5.40;1.00
7214;DHT22;3648;50.614;13.830;2022-11-20T00:48:22;-5.30;1.00
7214;DHT22;3648;50.614;13.830;2022-11-20T00:50:50;-5.30;1.00
7214;DHT22;3648;50.614;13.830;2022-11-20T00:53:18;-5.30;1.00
7214;DHT22;3648;50.614;13.830;2022-11-20T00:55:52;-5.30;1.00
7214;DHT22;3648;50.614;13.830;2022-11-20T00:58:19;-5.30;1.00
7214;DHT22;3648;50.614;13.830;2022-11-20T01:00:46;-5.30;1.00
7214;DHT22;3648;50.614;13.830;2022-11-20T01:03:14;-5.40;1.00
7214;DHT22;3648;50.614;13.830;2022-11-20T01:05:42;-5.60;1.00
7214;DHT22;3648;50.614;13.830;2022-11-20T01:08:10;-5.70;1.00
7214;DHT22;3648;50.614;13.830;2022-11-20T01:10:37;-5.70;1.00
7214;DHT22;3648;50.614;13.830;2022-11-20T01:13:04;-5.70;1.00
7214;DHT22;3648;50.614;13.830;2022-11-20T01:15:48;-5.70;1.00
7214;DHT22;3648;50.614;13.830;2022-11-20T01:18:15;-5.70;1.00
7214;DHT22;3648;50.614;13.830;2022-11-20T01:20:42;-5.60;1.00
7214;DHT22;3648;50.614;13.830;2022-11-20T01:23:11;-5.60;1.00
7214;DHT22;3648;50.614;13.830;2022-11-20T01:25:38;-5.60;1.00
7214;DHT22;3648;50.614;13.830;2022-11-20T01:28:05;-5.70;1.00
7214;DHT22;3648;50.614;13.830;2022-11-20T01:30:32;-5.70;1.00
7214;DHT22;3648;50.614;13.830;2022-11-20T01:32:59;-5.70;1.00
7214;DHT22;3648;50.614;13.830;2022-11-20T01:35:25;-5.80;1.00
7214;DHT22;3648;50.614;13.830;2022-11-20T01:37:52;-5.70;1.00
7214;DHT22;3648;50.614;13.830;2022-11-20T01:40:21;-5.60;1.00
7214;DHT22;3648;50.614;13.830;2022-11-20T01:42:55;-5.40;1.00
7214;DHT22;3648;50.614;13.830;2022-11-20T01:46:13;-5.20;1.00
7214;DHT22;3648;50.614;13.830;2022-11-20T01:48:48;-5.10;1.00
7214;DHT22;3648;50.614;13.830;2022-11-20T01:51:21;-5.10;1.00
7214;DHT22;3648;50.614;13.830;2022-11-20T01:53:50;-5.20;1.00
7214;DHT22;3648;50.614;13.830;2022-11-20T01:56:20;-5.20;1.00
7214;DHT22;3648;50.614;13.830;2022-11-20T01:58:51;-5.30;1.00
7214;DHT22;3648;50.614;13.830;2022-11-20T02:01:20;-5.20;1.00
7214;DHT22;3648;50.614;13.830;2022-11-20T02:03:48;-5.20;1.00
7214;DHT22;3648;50.614;13.830;2022-11-20T02:06:19;-5.10;1.00
7214;DHT22;3648;50.614;13.830;2022-11-20T02:08:49;-5.10;1.00
7214;DHT22;3648;50.614;13.830;2022-11-20T02:11:18;-5.10;1.00
7214;DHT22;3648;50.614;13.830;2022-11-20T02:13:46;-4.90;1.00
7214;DHT22;3648;50.614;13.830;2022-11-20T02:16:15;-4.90;1.00
7214;DHT22;3648;50.614;13.830;2022-11-20T02:18:43;-4.80;1.00
7214;DHT22;3648;50.614;13.830;2022-11-20T02:21:18;-4.60;1.00
7214;DHT22;3648;50.614;13.830;2022-11-20T02:24:09;-4.60;1.00
7214;DHT22;3648;50.614;13.830;2022-11-20T02:26:46;-4.70;1.00
7214;DHT22;3648;50.614;13.830;2022-11-20T02:29:17;-4.70;1.00
7214;DHT22;3648;50.614;13.830;2022-11-20T02:31:46;-4.70;1.00
7214;DHT22;3648;50.614;13.830;2022-11-20T02:34:13;-4.70;1.00
7214;DHT22;3648;50.614;13.830;2022-11-20T02:36:41;-4.70;1.00
7214;DHT22;3648;50.614;13.830;2022-11-20T02:39:11;-4.60;1.00
7214;DHT22;3648;50.614;13.830;2022-11-20T02:41:42;-4.60;1.00
7214;DHT22;3648;50.614;13.830;2022-11-20T02:44:09;-4.50;1.00
7214;DHT22;3648;50.614;13.830;2022-11-20T02:46:37;-4.50;1.00
7214;DHT22;3648;50.614;13.830;2022-11-20T02:49:04;-4.50;1.00
7214;DHT22;3648;50.614;13.830;2022-11-20T02:51:31;-4.40;1.00
7214;DHT22;3648;50.614;13.830;2022-11-20T02:53:59;-4.40;1.00
7214;DHT22;3648;50.614;13.830;2022-11-20T02:56:27;-4.20;1.00
7214;DHT22;3648;50.614;13.830;2022-11-20T02:58:54;-4.10;1.00
7214;DHT22;3648;50.614;13.830;2022-11-20T03:01:21;-4.10;1.00
7214;DHT22;3648;50.614;13.830;2022-11-20T03:03:48;-4.00;1.00
7214;DHT22;3648;50.614;13.830;2022-11-20T03:06:15;-4.00;1.00
7214;DHT22;3648;50.614;13.830;2022-11-20T03:08:42;-4.00;1.00
7214;DHT22;3648;50.614;13.830;2022-11-20T03:11:09;-3.90;1.00
7214;DHT22;3648;50.614;13.830;2022-11-20T03:13:38;-3.90;1.00
7214;DHT22;3648;50.614;13.830;2022-11-20T03:16:09;-3.90;1.00
7214;DHT22;3648;50.614;13.830;2022-11-20T03:18:37;-3.90;1.00
7214;DHT22;3648;50.614;13.830;2022-11-20T03:21:04;-3.90;1.00
7214;DHT22;3648;50.614;13.830;2022-11-20T03:23:33;-3.90;1.00
7214;DHT22;3648;50.614;13.830;2022-11-20T03:26:09;-3.90;1.00
7214;DHT22;3648;50.614;13.830;2022-11-20T03:28:38;-3.90;1.00
7214;DHT22;3648;50.614;13.830;2022-11-20T03:31:07;-3.90;1.00
7214;DHT22;3648;50.614;13.830;2022-11-20T03:33:34;-3.90;1.00
7214;DHT22;3648;50.614;13.830;2022-11-20T03:36:02;-3.90;1.00
7214;DHT22;3648;50.614;13.830;2022-11-20T03:38:29;-3.80;1.00
7214;DHT22;3648;50.614;13.830;2022-11-20T03:40:59;-3.80;1.00
7214;DHT22;3648;50.614;13.830;2022-11-20T03:43:26;-3.70;1.00
7214;DHT22;3648;50.614;13.830;2022-11-20T03:45:55;-3.70;1.00
7214;DHT22;3648;50.614;13.830;2022-11-20T03:48:22;-3.50;1.00
7214;DHT22;3648;50.614;13.830;2022-11-20T03:50:49;-3.50;1.00
7214;DHT22;3648;50.614;13.830;2022-11-20T03:53:17;-3.40;1.00
7214;DHT22;3648;50.614;13.830;2022-11-20T03:55:44;-3.40;1.00
7214;DHT22;3648;50.614;13.830;2022-11-20T03:58:11;-3.30;1.00
7214;DHT22;3648;50.614;13.830;2022-11-20T04:00:39;-3.20;1.00
7214;DHT22;3648;50.614;13.830;2022-11-20T04:03:07;-3.20;1.00
7214;DHT22;3648;50.614;13.830;2022-11-20T04:05:34;-3.30;1.00
7214;DHT22;3648;50.614;13.830;2022-11-20T04:08:01;-3.20;1.00
7214;DHT22;3648;50.614;13.830;2022-11-20T04:10:28;-3.10;1.00
7214;DHT22;3648;50.614;13.830;2022-11-20T04:12:55;-3.10;1.00
7214;DHT22;3648;50.614;13.830;2022-11-20T04:15:22;-3.10;1.00
7214;DHT22;3648;50.614;13.830;2022-11-20T04:17:49;-3.00;1.00
7214;DHT22;3648;50.614;13.830;2022-11-20T04:20:17;-3.00;1.00
7214;DHT22;3648;50.614;13.830;2022-11-20T04:22:44;-3.00;1.00
7214;DHT22;3648;50.614;13.830;2022-11-20T04:25:12;-3.10;1.00
7214;DHT22;3648;50.614;13.830;2022-11-20T04:27:39;-3.10;1.00
7214;DHT22;3648;50.614;13.830;2022-11-20T04:30:08;-3.20;1.00
7214;DHT22;3648;50.614;13.830;2022-11-20T04:32:35;-3.20;1.00
7214;DHT22;3648;50.614;13.830;2022-11-20T04:35:02;-3.20;1.00
7214;DHT22;3648;50.614;13.830;2022-11-20T04:37:30;-3.20;1.00
7214;DHT22;3648;50.614;13.830;2022-11-20T04:39:57;-3.30;1.00
7214;DHT22;3648;50.614;13.830;2022-11-20T04:42:24;-3.30;1.00
7214;DHT22;3648;50.614;13.830;2022-11-20T04:44:55;-3.40;1.00
7214;DHT22;3648;50.614;13.830;2022-11-20T04:47:22;-3.40;1.00
7214;DHT22;3648;50.614;13.830;2022-11-20T04:49:49;-3.40;1.00
7214;DHT22;3648;50.614;13.830;2022-11-20T04:52:16;-3.40;1.00
7214;DHT22;3648;50.614;13.830;2022-11-20T04:54:44;-3.40;1.00
7214;DHT22;3648;50.614;13.830;2022-11-20T04:57:13;-3.40;1.00
7214;DHT22;3648;50.614;13.830;2022-11-20T04:59:41;-3.30;1.00
7214;DHT22;3648;50.614;13.830;2022-11-20T05:02:08;-3.30;1.00
7214;DHT22;3648;50.614;13.830;2022-11-20T05:04:35;-3.40;1.00
7214;DHT22;3648;50.614;13.830;2022-11-20T05:07:02;-3.40;1.00
7214;DHT22;3648;50.614;13.830;2022-11-20T05:09:30;-3.30;1.00
7214;DHT22;3648;50.614;13.830;2022-11-20T05:11:58;-3.30;1.00
7214;DHT22;3648;50.614;13.830;2022-11-20T05:14:25;-3.30;1.00
7214;DHT22;3648;50.614;13.830;2022-11-20T05:16:52;-3.30;1.00
7214;DHT22;3648;50.614;13.830;2022-11-20T05:19:19;-3.30;1.00
7214;DHT22;3648;50.614;13.830;2022-11-20T05:21:46;-3.20;1.00
7214;DHT22;3648;50.614;13.830;2022-11-20T05:24:13;-3.30;1.00
7214;DHT22;3648;50.614;13.830;2022-11-20T05:26:40;-3.20;1.00
7214;DHT22;3648;50.614;13.830;2022-11-20T05:29:10;-3.20;1.00
7214;DHT22;3648;50.614;13.830;2022-11-20T05:31:39;-3.20;1.00
7214;DHT22;3648;50.614;13.830;2022-11-20T05:34:06;-3.20;1.00
7214;DHT22;3648;50.614;13.830;2022-11-20T05:36:33;-3.10;1.00
7214;DHT22;3648;50.614;13.830;2022-11-20T05:39:00;-3.10;1.00
7214;DHT22;3648;50.614;13.830;2022-11-20T05:41:27;-3.10;1.00
7214;DHT22;3648;50.614;13.830;2022-11-20T05:43:56;-3.20;1.00
7214;DHT22;3648;50.614;13.830;2022-11-20T05:46:24;-3.20;1.00
7214;DHT22;3648;50.614;13.830;2022-11-20T05:48:51;-3.20;1.00
7214;DHT22;3648;50.614;13.830;2022-11-20T05:51:19;-3.10;1.00
7214;DHT22;3648;50.614;13.830;2022-11-20T05:53:46;-3.10;1.00
7214;DHT22;3648;50.614;13.830;2022-11-20T05:56:14;-3.10;1.00
7214;DHT22;3648;50.614;13.830;2022-11-20T05:58:42;-3.00;1.00
7214;DHT22;3648;50.614;13.830;2022-11-20T06:01:12;-3.00;1.00
7214;DHT22;3648;50.614;13.830;2022-11-20T06:03:41;-2.90;1.00
7214;DHT22;3648;50.614;13.830;2022-11-20T06:06:12;-2.90;1.00
7214;DHT22;3648;50.614;13.830;2022-11-20T06:08:39;-3.00;1.00
7214;DHT22;3648;50.614;13.830;2022-11-20T06:11:08;-2.90;1.00
7214;DHT22;3648;50.614;13.830;2022-11-20T06:13:36;-2.80;1.00
7214;DHT22;3648;50.614;13.830;2022-11-20T06:16:03;-2.90;1.00
7214;DHT22;3648;50.614;13.830;2022-11-20T06:18:31;-2.70;1.00
7214;DHT22;3648;50.614;13.830;2022-11-20T06:21:04;-2.70;1.00
7214;DHT22;3648;50.614;13.830;2022-11-20T06:23:32;-2.70;1.00
7214;DHT22;3648;50.614;13.830;2022-11-20T06:26:02;-2.80;1.00
7214;DHT22;3648;50.614;13.830;2022-11-20T06:28:29;-2.80;1.00
7214;DHT22;3648;50.614;13.830;2022-11-20T06:30:56;-2.80;1.00
7214;DHT22;3648;50.614;13.830;2022-11-20T06:33:23;-2.70;1.00
7214;DHT22;3648;50.614;13.830;2022-11-20T06:35:51;-2.80;1.00
7214;DHT22;3648;50.614;13.830;2022-11-20T06:38:19;-2.70;1.00
7214;DHT22;3648;50.614;13.830;2022-11-20T06:40:46;-2.70;1.00
7214;DHT22;3648;50.614;13.830;2022-11-20T06:43:13;-2.70;1.00
7214;DHT22;3648;50.614;13.830;2022-11-20T06:45:40;-2.70;1.00
7214;DHT22;3648;50.614;13.830;2022-11-20T06:48:07;-2.60;1.00
7214;DHT22;3648;50.614;13.830;2022-11-20T06:50:36;-2.60;1.00
7214;DHT22;3648;50.614;13.830;2022-11-20T06:53:03;-2.60;1.00
7214;DHT22;3648;50.614;13.830;2022-11-20T06:55:32;-2.60;1.00
7214;DHT22;3648;50.614;13.830;2022-11-20T06:57:59;-2.60;1.00
7214;DHT22;3648;50.614;13.830;2022-11-20T07:00:26;-2.50;1.00
7214;DHT22;3648;50.614;13.830;2022-11-20T07:02:53;-2.50;1.00
7214;DHT22;3648;50.614;13.830;2022-11-20T07:05:20;-2.50;1.00
7214;DHT22;3648;50.614;13.830;2022-11-20T07:07:47;-2.50;1.00
7214;DHT22;3648;50.614;13.830;2022-11-20T07:10:14;-2.50;1.00
7214;DHT22;3648;50.614;13.830;2022-11-20T07:12:49;-2.60;1.00
7214;DHT22;3648;50.614;13.830;2022-11-20T07:15:16;-2.80;1.00
7214;DHT22;3648;50.614;13.830;2022-11-20T07:17:43;-2.80;1.00
7214;DHT22;3648;50.614;13.830;2022-11-20T07:22:38;-2.60;1.00
7214;DHT22;3648;50.614;13.830;2022-11-20T07:25:06;-2.50;1.00
7214;DHT22;3648;50.614;13.830;2022-11-20T07:27:34;-2.60;1.00
7214;DHT22;3648;50.614;13.830;2022-11-20T07:30:03;-2.50;1.00
7214;DHT22;3648;50.614;13.830;2022-11-20T07:32:31;-2.60;1.00
7214;DHT22;3648;50.614;13.830;2022-11-20T07:34:58;-2.50;1.00
7214;DHT22;3648;50.614;13.830;2022-11-20T07:37:25;-2.40;1.00
7214;DHT22;3648;50.614;13.830;2022-11-20T07:39:52;-2.40;1.00
7214;DHT22;3648;50.614;13.830;2022-11-20T07:42:19;-2.30;1.00
7214;DHT22;3648;50.614;13.830;2022-11-20T07:44:46;-2.20;1.00
7214;DHT22;3648;50.614;13.830;2022-11-20T07:47:15;-2.30;1.00
7214;DHT22;3648;50.614;13.830;2022-11-20T07:49:42;-2.30;1.00
7214;DHT22;3648;50.614;13.830;2022-11-20T07:52:09;-2.30;1.00
7214;DHT22;3648;50.614;13.830;2022-11-20T07:54:36;-2.30;1.00
7214;DHT22;3648;50.614;13.830;2022-11-20T07:57:03;-2.30;1.00
7214;DHT22;3648;50.614;13.830;2022-11-20T07:59:30;-2.30;1.00
7214;DHT22;3648;50.614;13.830;2022-11-20T08:01:57;-2.20;1.00
7214;DHT22;3648;50.614;13.830;2022-11-20T08:04:26;-2.20;1.00
7214;DHT22;3648;50.614;13.830;2022-11-20T08:06:53;-2.20;1.00
7214;DHT22;3648;50.614;13.830;2022-11-20T08:09:21;-2.20;1.00
7214;DHT22;3648;50.614;13.830;2022-11-20T08:11:48;-2.20;1.00
7214;DHT22;3648;50.614;13.830;2022-11-20T08:14:32;-2.10;1.00
7214;DHT22;3648;50.614;13.830;2022-11-20T08:17:00;-2.20;1.00
7214;DHT22;3648;50.614;13.830;2022-11-20T08:19:28;-2.10;1.00
7214;DHT22;3648;50.614;13.830;2022-11-20T08:21:55;-2.10;1.00
7214;DHT22;3648;50.614;13.830;2022-11-20T08:24:23;-2.00;1.00
7214;DHT22;3648;50.614;13.830;2022-11-20T08:26:50;-2.10;1.00
7214;DHT22;3648;50.614;13.830;2022-11-20T08:29:17;-2.10;1.00
7214;DHT22;3648;50.614;13.830;2022-11-20T08:31:45;-2.00;1.00
7214;DHT22;3648;50.614;13.830;2022-11-20T08:34:12;-2.00;1.00
7214;DHT22;3648;50.614;13.830;2022-11-20T08:36:41;-1.90;1.00
7214;DHT22;3648;50.614;13.830;2022-11-20T08:39:12;-2.00;1.00
7214;DHT22;3648;50.614;13.830;2022-11-20T08:41:39;-2.00;1.00
7214;DHT22;3648;50.614;13.830;2022-11-20T08:44:07;-2.00;1.00
7214;DHT22;3648;50.614;13.830;2022-11-20T08:46:35;-2.00;1.00
7214;DHT22;3648;50.614;13.830;2022-11-20T08:49:04;-1.90;1.00
7214;DHT22;3648;50.614;13.830;2022-11-20T08:51:31;-1.90;1.00
7214;DHT22;3648;50.614;13.830;2022-11-20T08:54:00;-1.80;1.00
7214;DHT22;3648;50.614;13.830;2022-11-20T08:56:27;-1.70;1.00
7214;DHT22;3648;50.614;13.830;2022-11-20T08:58:55;-1.60;1.00
7214;DHT22;3648;50.614;13.830;2022-11-20T09:01:23;-1.50;1.00
7214;DHT22;3648;50.614;13.830;2022-11-20T09:03:50;-1.40;1.00
7214;DHT22;3648;50.614;13.830;2022-11-20T09:06:18;-1.30;1.00
7214;DHT22;3648;50.614;13.830;2022-11-20T09:08:45;-1.30;1.00
7214;DHT22;3648;50.614;13.830;2022-11-20T09:11:14;-1.30;1.00
7214;DHT22;3648;50.614;13.830;2022-11-20T09:13:41;-1.30;1.00
7214;DHT22;3648;50.614;13.830;2022-11-20T09:16:09;-1.10;1.00
7214;DHT22;3648;50.614;13.830;2022-11-20T09:18:36;-1.10;1.00
7214;DHT22;3648;50.614;13.830;2022-11-20T09:21:06;-1.00;1.00
7214;DHT22;3648;50.614;13.830;2022-11-20T09:23:35;-1.10;1.00
7214;DHT22;3648;50.614;13.830;2022-11-20T09:26:04;-1.00;1.00
7214;DHT22;3648;50.614;13.830;2022-11-20T09:28:33;-1.00;1.00
7214;DHT22;3648;50.614;13.830;2022-11-20T09:31:00;-0.90;1.00
7214;DHT22;3648;50.614;13.830;2022-11-20T09:33:27;-1.00;1.00
7214;DHT22;3648;50.614;13.830;2022-11-20T09:35:55;-1.10;1.00
7214;DHT22;3648;50.614;13.830;2022-11-20T09:38:22;-1.00;1.00
7214;DHT22;3648;50.614;13.830;2022-11-20T09:40:58;-0.90;1.00
7214;DHT22;3648;50.614;13.830;2022-11-20T09:43:36;-0.90;1.00
7214;DHT22;3648;50.614;13.830;2022-11-20T09:46:13;-0.90;1.00
7214;DHT22;3648;50.614;13.830;2022-11-20T09:51:41;-0.90;1.00
7214;DHT22;3648;50.614;13.830;2022-11-20T09:54:16;-1.00;1.00
7214;DHT22;3648;50.614;13.830;2022-11-20T09:56:46;-1.10;1.00
7214;DHT22;3648;50.614;13.830;2022-11-20T09:59:27;-1.00;1.00
7214;DHT22;3648;50.614;13.830;2022-11-20T10:01:57;-1.00;1.00
7214;DHT22;3648;50.614;13.830;2022-11-20T10:04:26;-1.00;1.00
7214;DHT22;3648;50.614;13.830;2022-11-20T10:07:02;-0.90;1.00
7214;DHT22;3648;50.614;13.830;2022-11-20T10:09:34;-0.90;1.00
7214;DHT22;3648;50.614;13.830;2022-11-20T10:12:11;-0.90;1.00
7214;DHT22;3648;50.614;13.830;2022-11-20T10:14:51;-1.00;1.00
7214;DHT22;3648;50.614;13.830;2022-11-20T10:17:33;-1.00;1.00
7214;DHT22;3648;50.614;13.830;2022-11-20T10:20:16;-0.90;1.00
7214;DHT22;3648;50.614;13.830;2022-11-20T10:22:57;-0.80;1.00
7214;DHT22;3648;50.614;13.830;2022-11-20T10:25:30;-0.70;1.00
7214;DHT22;3648;50.614;13.830;2022-11-20T10:28:13;-0.60;1.00
7214;DHT22;3648;50.614;13.830;2022-11-20T10:30:46;-0.60;1.00
7214;DHT22;3648;50.614;13.830;2022-11-20T10:33:18;-0.50;1.00
7214;DHT22;3648;50.614;13.830;2022-11-20T10:35:52;-0.60;1.00
7214;DHT22;3648;50.614;13.830;2022-11-20T10:38:28;-0.60;1.00
7214;DHT22;3648;50.614;13.830;2022-11-20T10:41:01;-0.60;1.00
7214;DHT22;3648;50.614;13.830;2022-11-20T10:43:43;-0.60;1.00
7214;DHT22;3648;50.614;13.830;2022-11-20T10:46:16;-0.50;1.00
7214;DHT22;3648;50.614;13.830;2022-11-20T10:48:45;-0.60;1.00
7214;DHT22;3648;50.614;13.830;2022-11-20T10:51:17;-0.60;1.00
7214;DHT22;3648;50.614;13.830;2022-11-20T10:53:57;-0.50;1.00
7214;DHT22;3648;50.614;13.830;2022-11-20T10:56:31;-0.60;1.00
7214;DHT22;3648;50.614;13.830;2022-11-20T10:59:22;-0.50;1.00
7214;DHT22;3648;50.614;13.830;2022-11-20T11:01:53;-0.50;1.00
7214;DHT22;3648;50.614;13.830;2022-11-20T11:04:32;-0.50;1.00
7214;DHT22;3648;50.614;13.830;2022-11-20T11:07:07;-0.50;1.00
7214;DHT22;3648;50.614;13.830;2022-11-20T11:09:39;-0.40;1.00
7214;DHT22;3648;50.614;13.830;2022-11-20T11:12:08;-0.50;1.00
7214;DHT22;3648;50.614;13.830;2022-11-20T11:14:44;-0.50;1.00
7214;DHT22;3648;50.614;13.830;2022-11-20T11:17:25;-0.40;1.00
7214;DHT22;3648;50.614;13.830;2022-11-20T11:19:58;-0.40;1.00
7214;DHT22;3648;50.614;13.830;2022-11-20T11:22:28;-0.40;1.00
7214;DHT22;3648;50.614;13.830;2022-11-20T11:24:55;-0.30;1.00
7214;DHT22;3648;50.614;13.830;2022-11-20T11:27:22;-0.30;1.00
7214;DHT22;3648;50.614;13.830;2022-11-20T11:29:49;-0.30;1.00
7214;DHT22;3648;50.614;13.830;2022-11-20T11:32:29;-0.30;1.00
7214;DHT22;3648;50.614;13.830;2022-11-20T11:35:00;-0.20;1.00
7214;DHT22;3648;50.614;13.830;2022-11-20T11:37:28;-0.20;1.00
7214;DHT22;3648;50.614;13.830;2022-11-20T11:39:59;-0.30;1.00
7214;DHT22;3648;50.614;13.830;2022-11-20T11:42:28;-0.10;1.00
7214;DHT22;3648;50.614;13.830;2022-11-20T11:44:57;-0.10;1.00
7214;DHT22;3648;50.614;13.830;2022-11-20T11:47:37;-0.10;1.00
7214;DHT22;3648;50.614;13.830;2022-11-20T11:50:16;-0.10;1.00
7214;DHT22;3648;50.614;13.830;2022-11-20T11:52:46;-0.20;1.00
7214;DHT22;3648;50.614;13.830;2022-11-20T11:55:19;-0.20;1.00
7214;DHT22;3648;50.614;13.830;2022-11-20T11:57:52;-0.10;1.00
7214;DHT22;3648;50.614;13.830;2022-11-20T12:00:21;-0.30;1.00
7214;DHT22;3648;50.614;13.830;2022-11-20T12:02:56;-0.10;1.00
7214;DHT22;3648;50.614;13.830;2022-11-20T12:05:27;-0.10;1.00
7214;DHT22;3648;50.614;13.830;2022-11-20T12:07:58;-0.20;1.00
7214;DHT22;3648;50.614;13.830;2022-11-20T12:10:38;-0.30;1.00
7214;DHT22;3648;50.614;13.830;2022-11-20T12:13:21;-0.10;1.00
7214;DHT22;3648;50.614;13.830;2022-11-20T12:15:51;0.00;1.00
7214;DHT22;3648;50.614;13.830;2022-11-20T12:18:22;0.10;1.00
7214;DHT22;3648;50.614;13.830;2022-11-20T12:21:00;0.10;1.00
7214;DHT22;3648;50.614;13.830;2022-11-20T12:23:35;0.00;1.00
7214;DHT22;3648;50.614;13.830;2022-11-20T12:26:18;0.10;1.00
7214;DHT22;3648;50.614;13.830;2022-11-20T12:28:56;0.20;1.00
7214;DHT22;3648;50.614;13.830;2022-11-20T12:31:57;0.20;1.00
7214;DHT22;3648;50.614;13.830;2022-11-20T12:34:43;0.30;1.00
7214;DHT22;3648;50.614;13.830;2022-11-20T12:37:22;0.30;1.00
7214;DHT22;3648;50.614;13.830;2022-11-20T12:39:55;0.20;1.00
7214;DHT22;3648;50.614;13.830;2022-11-20T12:42:44;0.30;1.00
7214;DHT22;3648;50.614;13.830;2022-11-20T12:46:05;0.10;1.00
7214;DHT22;3648;50.614;13.830;2022-11-20T12:48:56;0.20;1.00
7214;DHT22;3648;50.614;13.830;2022-11-20T12:51:42;0.20;1.00
7214;DHT22;3648;50.614;13.830;2022-11-20T12:57:23;0.20;1.00
7214;DHT22;3648;50.614;13.830;2022-11-20T13:00:01;0.20;1.00
7214;DHT22;3648;50.614;13.830;2022-11-20T13:02:36;0.20;1.00
7214;DHT22;3648;50.614;13.830;2022-11-20T13:05:18;0.20;1.00
7214;DHT22;3648;50.614;13.830;2022-11-20T13:07:48;0.30;1.00
7214;DHT22;3648;50.614;13.830;2022-11-20T13:13:14;0.30;1.00
7214;DHT22;3648;50.614;13.830;2022-11-20T13:15:49;0.30;1.00
7214;DHT22;3648;50.614;13.830;2022-11-20T13:18:19;0.20;1.00
7214;DHT22;3648;50.614;13.830;2022-11-20T13:20:46;0.20;1.00
7214;DHT22;3648;50.614;13.830;2022-11-20T13:23:25;0.20;1.00
7214;DHT22;3648;50.614;13.830;2022-11-20T13:26:03;0.20;1.00
7214;DHT22;3648;50.614;13.830;2022-11-20T13:28:31;0.10;1.00
7214;DHT22;3648;50.614;13.830;2022-11-20T13:30:58;0.00;1.00
7214;DHT22;3648;50.614;13.830;2022-11-20T13:33:29;0.10;1.00
7214;DHT22;3648;50.614;13.830;2022-11-20T13:35:59;0.00;1.00
7214;DHT22;3648;50.614;13.830;2022-11-20T13:38:39;-0.10;1.00
7214;DHT22;3648;50.614;13.830;2022-11-20T13:41:08;-0.10;1.00
7214;DHT22;3648;50.614;13.830;2022-11-20T13:43:49;-0.10;1.00
7214;DHT22;3648;50.614;13.830;2022-11-20T13:46:17;-0.10;1.00
7214;DHT22;3648;50.614;13.830;2022-11-20T13:48:50;-0.10;1.00
7214;DHT22;3648;50.614;13.830;2022-11-20T13:51:28;-0.10;1.00
7214;DHT22;3648;50.614;13.830;2022-11-20T13:54:20;-0.10;1.00
7214;DHT22;3648;50.614;13.830;2022-11-20T13:56:59;-0.20;1.00
7214;DHT22;3648;50.614;13.830;2022-11-20T13:59:40;-0.30;1.00
7214;DHT22;3648;50.614;13.830;2022-11-20T14:02:14;-0.20;1.00
7214;DHT22;3648;50.614;13.830;2022-11-20T14:04:43;-0.30;1.00
7214;DHT22;3648;50.614;13.830;2022-11-20T14:07:12;-0.30;1.00
7214;DHT22;3648;50.614;13.830;2022-11-20T14:09:50;-0.30;1.00
7214;DHT22;3648;50.614;13.830;2022-11-20T14:12:19;-0.40;1.00
7214;DHT22;3648;50.614;13.830;2022-11-20T14:14:49;-0.40;1.00
7214;DHT22;3648;50.614;13.830;2022-11-20T14:17:19;-0.40;1.00
7214;DHT22;3648;50.614;13.830;2022-11-20T14:19:47;-0.40;1.00
7214;DHT22;3648;50.614;13.830;2022-11-20T14:22:20;-0.40;1.00
7214;DHT22;3648;50.614;13.830;2022-11-20T14:25:00;-0.40;1.00
7214;DHT22;3648;50.614;13.830;2022-11-20T14:27:27;-0.40;1.00
7214;DHT22;3648;50.614;13.830;2022-11-20T14:29:55;-0.40;1.00
7214;DHT22;3648;50.614;13.830;2022-11-20T14:32:25;-0.40;1.00
7214;DHT22;3648;50.614;13.830;2022-11-20T14:34:54;-0.40;1.00
7214;DHT22;3648;50.614;13.830;2022-11-20T14:37:25;-0.40;1.00
7214;DHT22;3648;50.614;13.830;2022-11-20T14:39:56;-0.50;1.00
7214;DHT22;3648;50.614;13.830;2022-11-20T14:42:25;-0.50;1.00
7214;DHT22;3648;50.614;13.830;2022-11-20T14:44:54;-0.50;1.00
7214;DHT22;3648;50.614;13.830;2022-11-20T14:47:24;-0.60;1.00
7214;DHT22;3648;50.614;13.830;2022-11-20T14:49:52;-0.60;1.00
7214;DHT22;3648;50.614;13.830;2022-11-20T14:52:21;-0.60;1.00
7214;DHT22;3648;50.614;13.830;2022-11-20T14:54:50;-0.60;1.00
7214;DHT22;3648;50.614;13.830;2022-11-20T14:57:24;-0.50;1.00
7214;DHT22;3648;50.614;13.830;2022-11-20T15:00:07;-0.50;1.00
7214;DHT22;3648;50.614;13.830;2022-11-20T15:02:38;-0.50;1.00
7214;DHT22;3648;50.614;13.830;2022-11-20T15:05:06;-0.40;1.00
7214;DHT22;3648;50.614;13.830;2022-11-20T15:07:35;-0.50;1.00
7214;DHT22;3648;50.614;13.830;2022-11-20T15:10:04;-0.50;1.00
7214;DHT22;3648;50.614;13.830;2022-11-20T15:12:34;-0.50;1.00
7214;DHT22;3648;50.614;13.830;2022-11-20T15:15:03;-0.60;1.00
7214;DHT22;3648;50.614;13.830;2022-11-20T15:17:32;-0.60;1.00
7214;DHT22;3648;50.614;13.830;2022-11-20T15:20:02;-0.60;1.00
7214;DHT22;3648;50.614;13.830;2022-11-20T15:22:32;-0.60;1.00
7214;DHT22;3648;50.614;13.830;2022-11-20T15:25:00;-0.60;1.00
7214;DHT22;3648;50.614;13.830;2022-11-20T15:27:27;-0.50;1.00
7214;DHT22;3648;50.614;13.830;2022-11-20T15:29:56;-0.50;1.00
7214;DHT22;3648;50.614;13.830;2022-11-20T15:32:23;-0.50;1.00
7214;DHT22;3648;50.614;13.830;2022-11-20T15:34:50;-0.50;1.00
7214;DHT22;3648;50.614;13.830;2022-11-20T15:37:17;-0.50;1.00
7214;DHT22;3648;50.614;13.830;2022-11-20T15:39:44;-0.50;1.00
7214;DHT22;3648;50.614;13.830;2022-11-20T15:42:12;-0.60;1.00
7214;DHT22;3648;50.614;13.830;2022-11-20T15:44:39;-0.60;1.00
7214;DHT22;3648;50.614;13.830;2022-11-20T15:47:08;-0.60;1.00
7214;DHT22;3648;50.614;13.830;2022-11-20T15:49:36;-0.60;1.00
7214;DHT22;3648;50.614;13.830;2022-11-20T15:52:03;-0.60;1.00
7214;DHT22;3648;50.614;13.830;2022-11-20T15:54:30;-0.60;1.00
7214;DHT22;3648;50.614;13.830;2022-11-20T15:56:58;-0.70;1.00
7214;DHT22;3648;50.614;13.830;2022-11-20T15:59:26;-0.70;1.00
7214;DHT22;3648;50.614;13.830;2022-11-20T16:01:53;-0.60;1.00
7214;DHT22;3648;50.614;13.830;2022-11-20T16:04:22;-0.70;1.00
7214;DHT22;3648;50.614;13.830;2022-11-20T16:06:49;-0.70;1.00
7214;DHT22;3648;50.614;13.830;2022-11-20T16:09:16;-0.70;1.00
7214;DHT22;3648;50.614;13.830;2022-11-20T16:11:44;-0.70;1.00
7214;DHT22;3648;50.614;13.830;2022-11-20T16:14:11;-0.60;1.00
7214;DHT22;3648;50.614;13.830;2022-11-20T16:16:56;-0.60;1.00
7214;DHT22;3648;50.614;13.830;2022-11-20T16:19:24;-0.60;1.00
7214;DHT22;3648;50.614;13.830;2022-11-20T16:21:52;-0.70;1.00
7214;DHT22;3648;50.614;13.830;2022-11-20T16:24:19;-0.70;1.00
7214;DHT22;3648;50.614;13.830;2022-11-20T16:26:47;-0.60;1.00
7214;DHT22;3648;50.614;13.830;2022-11-20T16:29:14;-0.60;1.00
7214;DHT22;3648;50.614;13.830;2022-11-20T16:31:41;-0.60;1.00
7214;DHT22;3648;50.614;13.830;2022-11-20T16:34:08;-0.60;1.00